LAN431 SCEL-SAZN
Flight info
| Callsign | LAN431 |
|---|---|
| Flight time | 0h 59m |
| Altitude | 39000 |
| Route | LINER6C LINER UM783 ANKON UZ122 UGAGI |
| Aircraft | A20N/M-SDE2E3FGHIRWXY/LB1 |
Departure
| Time | 2026-04-22 15:59 |
|---|---|
| Airport | Comodoro Arturo Merino Benítez International Airport (SCEL) |
Arrival
| Time | 2026-04-22 16:59 |
|---|---|
| Airport | Presidente Perón International Airport (SAZN) |
| Time | Latitude | Longitude | Altitude | Speed | Heading |
|---|---|---|---|---|---|
| 2026-04-22 15:40 | -33.40066 | -70.79124 | 1564 ft | 0 kts | 355° |
| 2026-04-22 15:48 | -33.40077 | -70.79124 | 1564 ft | 1 kts | 12° |
| 2026-04-22 15:49 | -33.40087 | -70.79126 | 1566 ft | 1 kts | 31° |
| 2026-04-22 15:49 | -33.40100 | -70.79130 | 1565 ft | 2 kts | 350° |
| 2026-04-22 15:49 | -33.40116 | -70.79126 | 1564 ft | 2 kts | 349° |
| 2026-04-22 15:49 | -33.40132 | -70.79122 | 1564 ft | 2 kts | 1° |
| 2026-04-22 15:50 | -33.40134 | -70.79119 | 1564 ft | 2 kts | 36° |
| 2026-04-22 15:50 | -33.40125 | -70.79107 | 1564 ft | 2 kts | 54° |
| 2026-04-22 15:50 | -33.40123 | -70.79093 | 1564 ft | 1 kts | 81° |
| 2026-04-22 15:50 | -33.40123 | -70.79085 | 1564 ft | 0 kts | 85° |
| 2026-04-22 15:52 | -33.40122 | -70.79073 | 1564 ft | 7 kts | 85° |
| 2026-04-22 15:52 | -33.40118 | -70.78977 | 1564 ft | 15 kts | 88° |
| 2026-04-22 15:53 | -33.40115 | -70.78889 | 1564 ft | 1 kts | 88° |
| 2026-04-22 15:53 | -33.40115 | -70.78868 | 1564 ft | 4 kts | 94° |
| 2026-04-22 15:53 | -33.40122 | -70.78821 | 1564 ft | 7 kts | 95° |
| 2026-04-22 15:53 | -33.40105 | -70.78760 | 1564 ft | 9 kts | 40° |
| 2026-04-22 15:54 | -33.40044 | -70.78755 | 1564 ft | 10 kts | 357° |
| 2026-04-22 15:54 | -33.39969 | -70.78759 | 1564 ft | 12 kts | 357° |
| 2026-04-22 15:54 | -33.39878 | -70.78763 | 1564 ft | 14 kts | 358° |
| 2026-04-22 15:54 | -33.39775 | -70.78769 | 1564 ft | 16 kts | 357° |
| 2026-04-22 15:55 | -33.39660 | -70.78776 | 1564 ft | 17 kts | 357° |
| 2026-04-22 15:55 | -33.39535 | -70.78784 | 1564 ft | 19 kts | 357° |
| 2026-04-22 15:55 | -33.39399 | -70.78791 | 1564 ft | 20 kts | 358° |
| 2026-04-22 15:55 | -33.39253 | -70.78797 | 1564 ft | 22 kts | 358° |
| 2026-04-22 15:56 | -33.39098 | -70.78806 | 1564 ft | 23 kts | 356° |
| 2026-04-22 15:56 | -33.38938 | -70.78816 | 1563 ft | 24 kts | 357° |
| 2026-04-22 15:56 | -33.38766 | -70.78825 | 1564 ft | 25 kts | 357° |
| 2026-04-22 15:56 | -33.38595 | -70.78833 | 1563 ft | 25 kts | 357° |
| 2026-04-22 15:57 | -33.38417 | -70.78843 | 1588 ft | 26 kts | 357° |
| 2026-04-22 15:57 | -33.38233 | -70.78852 | 1588 ft | 27 kts | 358° |
| 2026-04-22 15:57 | -33.38040 | -70.78862 | 1587 ft | 28 kts | 358° |
| 2026-04-22 15:57 | -33.37847 | -70.78873 | 1587 ft | 29 kts | 357° |
| 2026-04-22 15:58 | -33.37658 | -70.78880 | 1588 ft | 17 kts | 15° |
| 2026-04-22 15:58 | -33.37623 | -70.78784 | 1590 ft | 9 kts | 89° |
| 2026-04-22 15:58 | -33.37628 | -70.78696 | 1591 ft | 11 kts | 116° |
| 2026-04-22 15:58 | -33.37691 | -70.78666 | 1592 ft | 10 kts | 178° |
| 2026-04-22 15:59 | -33.37884 | -70.78656 | 1588 ft | 61 kts | 177° |
| 2026-04-22 15:59 | -33.38543 | -70.78620 | 1590 ft | 125 kts | 178° |
| 2026-04-22 15:59 | -33.39584 | -70.78563 | 1637 ft | 169 kts | 177° |
| 2026-04-22 15:59 | -33.40718 | -70.78484 | 2172 ft | 167 kts | 176° |
| 2026-04-22 16:00 | -33.41942 | -70.78400 | 2781 ft | 176 kts | 177° |
| 2026-04-22 16:00 | -33.43100 | -70.78363 | 3628 ft | 163 kts | 180° |
| 2026-04-22 16:00 | -33.44301 | -70.78345 | 4093 ft | 180 kts | 178° |
| 2026-04-22 16:00 | -33.45599 | -70.78289 | 4498 ft | 200 kts | 177° |
| 2026-04-22 16:01 | -33.47085 | -70.78205 | 4900 ft | 227 kts | 177° |
| 2026-04-22 16:01 | -33.48734 | -70.78094 | 5411 ft | 251 kts | 176° |
| 2026-04-22 16:01 | -33.50579 | -70.77950 | 5942 ft | 275 kts | 176° |
| 2026-04-22 16:01 | -33.52404 | -70.77806 | 6815 ft | 284 kts | 176° |
| 2026-04-22 16:02 | -33.54398 | -70.77654 | 7751 ft | 289 kts | 177° |
| 2026-04-22 16:02 | -33.56409 | -70.77520 | 8696 ft | 293 kts | 177° |
| 2026-04-22 16:02 | -33.58466 | -70.77393 | 9629 ft | 298 kts | 177° |
| 2026-04-22 16:02 | -33.59854 | -70.77308 | 10232 ft | 303 kts | 177° |
| 2026-04-22 16:03 | -33.62022 | -70.77173 | 10714 ft | 324 kts | 177° |
| 2026-04-22 16:03 | -33.64355 | -70.77026 | 11160 ft | 343 kts | 177° |
| 2026-04-22 16:03 | -33.66795 | -70.76871 | 11860 ft | 351 kts | 177° |
| 2026-04-22 16:03 | -33.69213 | -70.76716 | 12777 ft | 353 kts | 177° |
| 2026-04-22 16:04 | -33.71692 | -70.76556 | 13681 ft | 356 kts | 178° |
| 2026-04-22 16:04 | -33.74181 | -70.76396 | 14563 ft | 357 kts | 178° |
| 2026-04-22 16:04 | -33.76648 | -70.76237 | 15355 ft | 360 kts | 178° |
| 2026-04-22 16:04 | -33.79170 | -70.76075 | 16153 ft | 362 kts | 178° |
| 2026-04-22 16:05 | -33.81673 | -70.75915 | 16957 ft | 365 kts | 179° |
| 2026-04-22 16:05 | -33.84231 | -70.75751 | 17740 ft | 367 kts | 179° |
| 2026-04-22 16:05 | -33.86814 | -70.75584 | 18543 ft | 370 kts | 179° |
| 2026-04-22 16:05 | -33.89381 | -70.75418 | 19182 ft | 373 kts | 179° |
| 2026-04-22 16:06 | -33.91963 | -70.75248 | 19786 ft | 378 kts | 178° |
| 2026-04-22 16:06 | -33.94599 | -70.74822 | 20430 ft | 383 kts | 173° |
| 2026-04-22 16:06 | -33.97259 | -70.74286 | 21036 ft | 387 kts | 174° |
| 2026-04-22 16:06 | -33.99917 | -70.73768 | 21629 ft | 391 kts | 174° |
| 2026-04-22 16:07 | -34.02599 | -70.73248 | 22222 ft | 395 kts | 174° |
| 2026-04-22 16:07 | -34.05275 | -70.72728 | 22807 ft | 398 kts | 174° |
| 2026-04-22 16:07 | -34.07959 | -70.72205 | 23413 ft | 401 kts | 175° |
| 2026-04-22 16:07 | -34.10746 | -70.71661 | 23960 ft | 405 kts | 175° |
| 2026-04-22 16:08 | -34.13542 | -70.71115 | 24407 ft | 410 kts | 175° |
| 2026-04-22 16:08 | -34.16341 | -70.70567 | 24841 ft | 415 kts | 175° |
| 2026-04-22 16:08 | -34.19178 | -70.70010 | 25282 ft | 419 kts | 176° |
| 2026-04-22 16:08 | -34.22081 | -70.69441 | 25725 ft | 423 kts | 176° |
| 2026-04-22 16:09 | -34.25001 | -70.68867 | 26156 ft | 427 kts | 176° |
| 2026-04-22 16:09 | -34.27930 | -70.68292 | 26594 ft | 431 kts | 176° |
| 2026-04-22 16:09 | -34.30894 | -70.67709 | 26985 ft | 435 kts | 176° |
| 2026-04-22 16:09 | -34.33902 | -70.67117 | 27382 ft | 439 kts | 177° |
| 2026-04-22 16:10 | -34.36869 | -70.66533 | 27793 ft | 442 kts | 176° |
| 2026-04-22 16:10 | -34.39919 | -70.65932 | 28177 ft | 445 kts | 177° |
| 2026-04-22 16:10 | -34.42965 | -70.65332 | 28535 ft | 448 kts | 177° |
| 2026-04-22 16:10 | -34.46064 | -70.64720 | 28912 ft | 452 kts | 177° |
| 2026-04-22 16:11 | -34.49186 | -70.64103 | 29291 ft | 455 kts | 177° |
| 2026-04-22 16:11 | -34.52318 | -70.63484 | 29642 ft | 458 kts | 177° |
| 2026-04-22 16:11 | -34.55490 | -70.62855 | 29988 ft | 461 kts | 177° |
| 2026-04-22 16:11 | -34.58632 | -70.62233 | 30349 ft | 464 kts | 177° |
| 2026-04-22 16:12 | -34.61839 | -70.61598 | 30640 ft | 466 kts | 177° |
| 2026-04-22 16:12 | -34.65063 | -70.60961 | 30926 ft | 469 kts | 176° |
| 2026-04-22 16:12 | -34.68281 | -70.60323 | 31243 ft | 472 kts | 177° |
| 2026-04-22 16:12 | -34.71516 | -70.59681 | 31580 ft | 473 kts | 177° |
| 2026-04-22 16:13 | -34.74780 | -70.59032 | 32009 ft | 473 kts | 177° |
| 2026-04-22 16:13 | -34.77972 | -70.58397 | 32366 ft | 473 kts | 177° |
| 2026-04-22 16:13 | -34.81278 | -70.57739 | 32772 ft | 473 kts | 177° |
| 2026-04-22 16:13 | -34.84494 | -70.57097 | 33120 ft | 474 kts | 177° |
| 2026-04-22 16:14 | -34.87780 | -70.56443 | 33520 ft | 473 kts | 177° |
| 2026-04-22 16:14 | -34.90908 | -70.55818 | 33940 ft | 472 kts | 177° |
| 2026-04-22 16:14 | -34.94167 | -70.55166 | 34278 ft | 473 kts | 178° |
| 2026-04-22 16:14 | -34.97398 | -70.54522 | 34567 ft | 473 kts | 178° |
| 2026-04-22 16:15 | -35.00647 | -70.53873 | 34858 ft | 474 kts | 178° |
| 2026-04-22 16:15 | -35.03905 | -70.53222 | 35143 ft | 473 kts | 178° |
| 2026-04-22 16:15 | -35.07166 | -70.52569 | 35406 ft | 474 kts | 178° |
| 2026-04-22 16:15 | -35.10432 | -70.51914 | 35675 ft | 474 kts | 178° |
| 2026-04-22 16:16 | -35.13645 | -70.51269 | 35953 ft | 474 kts | 178° |
| 2026-04-22 16:16 | -35.16942 | -70.50606 | 36224 ft | 475 kts | 178° |
| 2026-04-22 16:16 | -35.20138 | -70.49714 | 36469 ft | 483 kts | 170° |
| 2026-04-22 16:16 | -35.23363 | -70.48308 | 36716 ft | 489 kts | 163° |
| 2026-04-22 16:17 | -35.26497 | -70.46696 | 36948 ft | 489 kts | 164° |
| 2026-04-22 16:17 | -35.29665 | -70.45092 | 37194 ft | 489 kts | 164° |
| 2026-04-22 16:17 | -35.32830 | -70.43495 | 37383 ft | 490 kts | 165° |
| 2026-04-22 16:17 | -35.35957 | -70.41915 | 37570 ft | 491 kts | 165° |
| 2026-04-22 16:18 | -35.39126 | -70.40312 | 37759 ft | 492 kts | 165° |
| 2026-04-22 16:18 | -35.42284 | -70.38709 | 37988 ft | 492 kts | 165° |
| 2026-04-22 16:18 | -35.45444 | -70.37103 | 38176 ft | 492 kts | 165° |
| 2026-04-22 16:18 | -35.48615 | -70.35489 | 38389 ft | 492 kts | 165° |
| 2026-04-22 16:19 | -35.51736 | -70.33900 | 38569 ft | 492 kts | 165° |
| 2026-04-22 16:19 | -35.54919 | -70.32279 | 38797 ft | 492 kts | 165° |
| 2026-04-22 16:19 | -35.58038 | -70.30688 | 38909 ft | 493 kts | 165° |
| 2026-04-22 16:19 | -35.61171 | -70.29090 | 39039 ft | 493 kts | 165° |
| 2026-04-22 16:20 | -35.64340 | -70.27471 | 39191 ft | 493 kts | 165° |
| 2026-04-22 16:20 | -35.67497 | -70.25855 | 39235 ft | 491 kts | 165° |
| 2026-04-22 16:20 | -35.73814 | -70.22620 | 39232 ft | 490 kts | 165° |
| 2026-04-22 16:21 | -35.80117 | -70.19391 | 39228 ft | 491 kts | 165° |
| 2026-04-22 16:21 | -35.86415 | -70.16158 | 39225 ft | 492 kts | 165° |
| 2026-04-22 16:22 | -35.95854 | -70.11301 | 39221 ft | 491 kts | 165° |
| 2026-04-22 16:23 | -36.05286 | -70.06430 | 39205 ft | 489 kts | 164° |
| 2026-04-22 16:23 | -36.11557 | -70.03186 | 39199 ft | 488 kts | 164° |
| 2026-04-22 16:24 | -36.20945 | -69.98321 | 39191 ft | 487 kts | 164° |
| 2026-04-22 16:25 | -36.27133 | -69.95106 | 39180 ft | 485 kts | 164° |
| 2026-04-22 16:25 | -36.36420 | -69.90272 | 39177 ft | 484 kts | 164° |
| 2026-04-22 16:26 | -36.42617 | -69.87039 | 39177 ft | 482 kts | 164° |
| 2026-04-22 16:26 | -36.48828 | -69.83794 | 39165 ft | 482 kts | 164° |
| 2026-04-22 16:27 | -36.54984 | -69.80571 | 39163 ft | 481 kts | 164° |
| 2026-04-22 16:27 | -36.61173 | -69.77325 | 39164 ft | 480 kts | 164° |
| 2026-04-22 16:28 | -36.67297 | -69.74110 | 39165 ft | 480 kts | 163° |
| 2026-04-22 16:28 | -36.73467 | -69.70863 | 39162 ft | 480 kts | 163° |
| 2026-04-22 16:29 | -36.79581 | -69.67641 | 39160 ft | 480 kts | 163° |
| 2026-04-22 16:29 | -36.85736 | -69.64391 | 39165 ft | 480 kts | 163° |
| 2026-04-22 16:30 | -36.91877 | -69.61140 | 39149 ft | 481 kts | 164° |
| 2026-04-22 16:30 | -36.98042 | -69.57875 | 39156 ft | 481 kts | 164° |
| 2026-04-22 16:31 | -37.04181 | -69.54617 | 39159 ft | 480 kts | 164° |
| 2026-04-22 16:31 | -37.10353 | -69.51335 | 39159 ft | 481 kts | 164° |
| 2026-04-22 16:32 | -37.16494 | -69.48064 | 39159 ft | 481 kts | 163° |
| 2026-04-22 16:32 | -37.22616 | -69.44797 | 39164 ft | 481 kts | 163° |
| 2026-04-22 16:33 | -37.28791 | -69.41496 | 39169 ft | 481 kts | 163° |
| 2026-04-22 16:33 | -37.34908 | -69.38221 | 39165 ft | 480 kts | 163° |
| 2026-04-22 16:34 | -37.41080 | -69.34911 | 39144 ft | 480 kts | 163° |
| 2026-04-22 16:34 | -37.44122 | -69.33277 | 38956 ft | 479 kts | 163° |
| 2026-04-22 16:34 | -37.47171 | -69.31637 | 38712 ft | 476 kts | 163° |
| 2026-04-22 16:35 | -37.50227 | -69.29993 | 38430 ft | 474 kts | 162° |
| 2026-04-22 16:35 | -37.53234 | -69.28374 | 38050 ft | 473 kts | 162° |
| 2026-04-22 16:35 | -37.56266 | -69.26743 | 37448 ft | 473 kts | 162° |
| 2026-04-22 16:35 | -37.59288 | -69.25115 | 36770 ft | 473 kts | 162° |
| 2026-04-22 16:36 | -37.62333 | -69.23473 | 36052 ft | 473 kts | 162° |
| 2026-04-22 16:36 | -37.65323 | -69.21859 | 35364 ft | 471 kts | 161° |
| 2026-04-22 16:36 | -37.68342 | -69.20226 | 34712 ft | 468 kts | 161° |
| 2026-04-22 16:36 | -37.71339 | -69.18603 | 34076 ft | 464 kts | 161° |
| 2026-04-22 16:37 | -37.74297 | -69.17000 | 33300 ft | 461 kts | 161° |
| 2026-04-22 16:37 | -37.77211 | -69.15420 | 32499 ft | 459 kts | 161° |
| 2026-04-22 16:37 | -37.80105 | -69.13850 | 31667 ft | 458 kts | 161° |
| 2026-04-22 16:37 | -37.83038 | -69.12256 | 30875 ft | 455 kts | 161° |
| 2026-04-22 16:38 | -37.85941 | -69.10674 | 30322 ft | 449 kts | 161° |
| 2026-04-22 16:38 | -37.88732 | -69.09151 | 29728 ft | 442 kts | 161° |
| 2026-04-22 16:38 | -37.91564 | -69.07603 | 29165 ft | 434 kts | 161° |
| 2026-04-22 16:38 | -37.94321 | -69.06095 | 28625 ft | 427 kts | 162° |
| 2026-04-22 16:39 | -37.97008 | -69.04626 | 28092 ft | 420 kts | 162° |
| 2026-04-22 16:39 | -37.99690 | -69.03159 | 27564 ft | 414 kts | 162° |
| 2026-04-22 16:39 | -38.02328 | -69.01715 | 27034 ft | 408 kts | 162° |
| 2026-04-22 16:39 | -38.04893 | -69.00312 | 26520 ft | 403 kts | 162° |
| 2026-04-22 16:40 | -38.07468 | -68.98901 | 26005 ft | 398 kts | 162° |
| 2026-04-22 16:40 | -38.09991 | -68.97516 | 25494 ft | 394 kts | 162° |
| 2026-04-22 16:40 | -38.14998 | -68.94768 | 24468 ft | 387 kts | 163° |
| 2026-04-22 16:41 | -38.17449 | -68.93421 | 23928 ft | 385 kts | 163° |
| 2026-04-22 16:41 | -38.19893 | -68.92075 | 23442 ft | 380 kts | 163° |
| 2026-04-22 16:41 | -38.22312 | -68.90744 | 22939 ft | 375 kts | 163° |
| 2026-04-22 16:41 | -38.24670 | -68.89445 | 22454 ft | 371 kts | 163° |
| 2026-04-22 16:42 | -38.27037 | -68.88140 | 21965 ft | 366 kts | 163° |
| 2026-04-22 16:42 | -38.29363 | -68.86859 | 21491 ft | 362 kts | 163° |
| 2026-04-22 16:42 | -38.31749 | -68.85553 | 20996 ft | 386 kts | 163° |
| 2026-04-22 16:42 | -38.34246 | -68.84191 | 20479 ft | 401 kts | 162° |
| 2026-04-22 16:43 | -38.36826 | -68.82767 | 19935 ft | 405 kts | 162° |
| 2026-04-22 16:43 | -38.39407 | -68.81333 | 19386 ft | 404 kts | 162° |
| 2026-04-22 16:43 | -38.41986 | -68.79897 | 18838 ft | 399 kts | 162° |
| 2026-04-22 16:43 | -38.44500 | -68.78499 | 18241 ft | 396 kts | 162° |
| 2026-04-22 16:44 | -38.47000 | -68.77108 | 17744 ft | 388 kts | 162° |
| 2026-04-22 16:44 | -38.49465 | -68.75738 | 17227 ft | 381 kts | 162° |
| 2026-04-22 16:44 | -38.51871 | -68.74402 | 16705 ft | 376 kts | 162° |
| 2026-04-22 16:44 | -38.54259 | -68.73076 | 16205 ft | 371 kts | 162° |
| 2026-04-22 16:45 | -38.56556 | -68.71801 | 15712 ft | 367 kts | 161° |
| 2026-04-22 16:45 | -38.58898 | -68.70500 | 15211 ft | 363 kts | 161° |
| 2026-04-22 16:45 | -38.61208 | -68.69215 | 14723 ft | 360 kts | 161° |
| 2026-04-22 16:45 | -38.63465 | -68.67821 | 14217 ft | 361 kts | 151° |
| 2026-04-22 16:46 | -38.65297 | -68.65657 | 13671 ft | 369 kts | 130° |
| 2026-04-22 16:46 | -38.66473 | -68.62734 | 13211 ft | 369 kts | 112° |
| 2026-04-22 16:46 | -38.67297 | -68.59626 | 12714 ft | 366 kts | 110° |
| 2026-04-22 16:46 | -38.68054 | -68.56585 | 12228 ft | 363 kts | 110° |
| 2026-04-22 16:47 | -38.68570 | -68.54517 | 11920 ft | 361 kts | 110° |
| 2026-04-22 16:47 | -38.69339 | -68.51495 | 11415 ft | 359 kts | 111° |
| 2026-04-22 16:47 | -38.70129 | -68.48445 | 10905 ft | 357 kts | 111° |
| 2026-04-22 16:47 | -38.70903 | -68.45484 | 10515 ft | 352 kts | 112° |
| 2026-04-22 16:48 | -38.71653 | -68.42622 | 10382 ft | 339 kts | 112° |
| 2026-04-22 16:48 | -38.72382 | -68.39843 | 10261 ft | 326 kts | 112° |
| 2026-04-22 16:48 | -38.73098 | -68.37114 | 9995 ft | 318 kts | 112° |
| 2026-04-22 16:48 | -38.73786 | -68.34497 | 9811 ft | 310 kts | 112° |
| 2026-04-22 16:49 | -38.74479 | -68.31862 | 9489 ft | 309 kts | 112° |
| 2026-04-22 16:49 | -38.75158 | -68.29277 | 9134 ft | 307 kts | 113° |
| 2026-04-22 16:49 | -38.75788 | -68.26873 | 8789 ft | 305 kts | 113° |
| 2026-04-22 16:49 | -38.76467 | -68.24273 | 8425 ft | 302 kts | 113° |
| 2026-04-22 16:50 | -38.77117 | -68.21782 | 8078 ft | 299 kts | 113° |
| 2026-04-22 16:50 | -38.77780 | -68.19239 | 7724 ft | 297 kts | 113° |
| 2026-04-22 16:50 | -38.78431 | -68.16742 | 7370 ft | 295 kts | 113° |
| 2026-04-22 16:50 | -38.79086 | -68.14227 | 7018 ft | 294 kts | 113° |
| 2026-04-22 16:51 | -38.79724 | -68.11774 | 6671 ft | 293 kts | 113° |
| 2026-04-22 16:51 | -38.80369 | -68.09292 | 6308 ft | 292 kts | 113° |
| 2026-04-22 16:51 | -38.81009 | -68.06840 | 5960 ft | 290 kts | 112° |
| 2026-04-22 16:51 | -38.81644 | -68.04398 | 5613 ft | 288 kts | 112° |
| 2026-04-22 16:52 | -38.82280 | -68.01957 | 5288 ft | 285 kts | 111° |
| 2026-04-22 16:52 | -38.82902 | -67.99556 | 5155 ft | 278 kts | 111° |
| 2026-04-22 16:52 | -38.83487 | -67.97276 | 5151 ft | 257 kts | 111° |
| 2026-04-22 16:52 | -38.84012 | -67.95226 | 5150 ft | 243 kts | 111° |
| 2026-04-22 16:53 | -38.84718 | -67.93249 | 5156 ft | 238 kts | 134° |
| 2026-04-22 16:53 | -38.85942 | -67.92055 | 5083 ft | 214 kts | 168° |
| 2026-04-22 16:53 | -38.87335 | -67.91823 | 4971 ft | 194 kts | 188° |
| 2026-04-22 16:53 | -38.88674 | -67.91932 | 4753 ft | 190 kts | 192° |
| 2026-04-22 16:54 | -38.89955 | -67.92073 | 4499 ft | 190 kts | 191° |
| 2026-04-22 16:54 | -38.91283 | -67.92171 | 4204 ft | 190 kts | 189° |
| 2026-04-22 16:54 | -38.92596 | -67.92217 | 3832 ft | 190 kts | 188° |
| 2026-04-22 16:54 | -38.93843 | -67.92475 | 3569 ft | 181 kts | 213° |
| 2026-04-22 16:55 | -38.94725 | -67.93573 | 3440 ft | 178 kts | 246° |
| 2026-04-22 16:55 | -38.94970 | -67.95121 | 3057 ft | 188 kts | 272° |
| 2026-04-22 16:55 | -38.94497 | -67.96882 | 1319 ft | 242 kts | 301° |
| 2026-04-22 16:55 | -38.94023 | -67.98696 | 1514 ft | 191 kts | 266° |
| 2026-04-22 16:56 | -38.94246 | -68.00236 | 1532 ft | 162 kts | 254° |
| 2026-04-22 16:56 | -38.94546 | -68.01672 | 1470 ft | 174 kts | 257° |
| 2026-04-22 16:56 | -38.94717 | -68.03194 | 1715 ft | 156 kts | 264° |
| 2026-04-22 16:56 | -38.94788 | -68.04401 | 1810 ft | 127 kts | 265° |
| 2026-04-22 16:57 | -38.94813 | -68.05543 | 1711 ft | 126 kts | 266° |
| 2026-04-22 16:57 | -38.94853 | -68.06665 | 1699 ft | 131 kts | 265° |
| 2026-04-22 16:57 | -38.94885 | -68.07848 | 1694 ft | 130 kts | 268° |
| 2026-04-22 16:57 | -38.94895 | -68.09010 | 1621 ft | 129 kts | 268° |
| 2026-04-22 16:58 | -38.94912 | -68.10166 | 1498 ft | 132 kts | 268° |
| 2026-04-22 16:58 | -38.94923 | -68.11344 | 1353 ft | 134 kts | 270° |
| 2026-04-22 16:58 | -38.94909 | -68.12545 | 1176 ft | 133 kts | 270° |
| 2026-04-22 16:58 | -38.94908 | -68.13705 | 1008 ft | 129 kts | 270° |
| 2026-04-22 16:59 | -38.94909 | -68.14812 | 901 ft | 114 kts | 271° |
| 2026-04-22 16:59 | -38.94905 | -68.15572 | 905 ft | 56 kts | 271° |
| 2026-04-22 16:59 | -38.94901 | -68.15822 | 905 ft | 6 kts | 267° |
| 2026-04-22 16:59 | -38.94911 | -68.15878 | 905 ft | 4 kts | 283° |
| 2026-04-22 17:00 | -38.94904 | -68.15878 | 905 ft | 0 kts | 3° |
| 2026-04-22 17:00 | -38.94902 | -68.15873 | 905 ft | 0 kts | 43° |
| 2026-04-22 17:00 | -38.94901 | -68.15864 | 905 ft | 3 kts | 70° |
| 2026-04-22 17:01 | -38.94900 | -68.15806 | 905 ft | 10 kts | 90° |
| 2026-04-22 17:01 | -38.94900 | -68.15693 | 905 ft | 15 kts | 90° |
| 2026-04-22 17:01 | -38.94900 | -68.15544 | 905 ft | 18 kts | 90° |
| 2026-04-22 17:01 | -38.94901 | -68.15361 | 903 ft | 23 kts | 90° |
| 2026-04-22 17:02 | -38.94910 | -68.15142 | 901 ft | 25 kts | 111° |
| 2026-04-22 17:02 | -38.95023 | -68.14977 | 903 ft | 26 kts | 137° |
| 2026-04-22 17:02 | -38.95093 | -68.14800 | 903 ft | 23 kts | 89° |
| 2026-04-22 17:02 | -38.95092 | -68.14581 | 903 ft | 26 kts | 90° |
| 2026-04-22 17:03 | -38.95093 | -68.14331 | 903 ft | 30 kts | 90° |
| 2026-04-22 17:03 | -38.95095 | -68.14160 | 903 ft | 0 kts | 107° |
| 2026-04-22 17:03 | -38.95097 | -68.14158 | 903 ft | 1 kts | 119° |
| 2026-04-22 17:03 | -38.95110 | -68.14156 | 905 ft | 1 kts | 185° |
| 2026-04-22 17:04 | -38.95142 | -68.14157 | 903 ft | 6 kts | 180° |
| 2026-04-22 17:04 | -38.95156 | -68.14158 | 903 ft | 0 kts | 180° |